Flight Track Log - Related Links

Times and Time Zones

All times are in EDT time to prevent confusion due to time zone crossing. See the ASQ6159 flight status page for this flight to view local times or setup timezone preferences in your user account.


Time Position Orientation Groundspeed Altitude Reporting Facility
EDT Latitude Longitude Course Direction KTS MPH feet Rate Location/Type
Sat 01:17:22 PM 41.9333 -87.9167 236° Southwest 159 183 2,500  Level Chicago TRACON
Sat 01:18:16 PM 41.9167 -87.9500 236° Southwest 195 224 4,100 1,670 Climbing Chicago TRACON
Sat 01:19:17 PM 41.8667 -88.0167 225° Southwest 251 289 5,700 1,565 Climbing Chicago TRACON
Sat 01:19:48 PM 41.8356 -88.0483 217° Southwest 220 253 6,500 2,000 Climbing Chicago Center
Sat 01:20:50 PM 41.8158 -88.1339 253° West 279 321 8,800 1,742 Climbing Chicago Center
Sat 01:21:52 PM 41.8756 -88.2061 318° Northwest 298 343 10,100 1,610 Climbing Chicago Center
Sat 01:22:53 PM 41.9364 -88.2822 317° Northwest 300 345 12,100 1,415 Climbing Chicago Center
Sat 01:23:55 PM 42.0000 -88.3594 318° Northwest 309 356 13,000 435 Climbing Chicago Center
Sat 01:24:57 PM 42.0750 -88.4553 317° Northwest 311 358 13,000  Level Chicago Center
Sat 01:25:59 PM 42.0914 -88.5739 281° West 332 382 13,000 387 Level Chicago Center
Sat 01:27:01 PM 42.0883 -88.7111 268° West 366 421 13,800 1,317 Climbing Chicago Center
Sat 01:28:02 PM 42.0833 -88.8694 268° West 379 436 15,700 1,561 Climbing Chicago Center
Sat 01:29:04 PM 42.0828 -89.0078 270° West 373 429 17,000 1,016 Climbing Chicago Center
Sat 01:30:06 PM 42.0897 -89.1497 274° West 377 434 17,800 871 Climbing Chicago Center
Sat 01:31:08 PM 42.0969 -89.2989 274° West 393 452 18,800 1,073 Climbing Chicago Center
Sat 01:32:09 PM 42.1028 -89.4497 273° West 400 460 20,000 1,268 Climbing Chicago Center
Sat 01:33:11 PM 42.1108 -89.6008 274° West 404 465 21,400 1,742 Climbing Chicago Center
Sat 01:34:13 PM 42.1186 -89.7492 274° West 398 458 23,600 2,323 Climbing Chicago Center
Sat 01:35:15 PM 42.1264 -89.9092 274° West 371 427 26,200 2,146 Climbing Chicago Center
Sat 01:36:16 PM 42.1339 -90.0256 275° West 355 409 28,000 1,707 Climbing Chicago Center
Sat 01:37:18 PM 42.1414 -90.1497 275° West 340 391 29,700 1,645 Climbing Chicago Center
Sat 01:38:20 PM 42.1525 -90.2967 276° West 333 383 31,400 1,113 Climbing Chicago Center
Sat 01:39:22 PM 42.1617 -90.4222 276° West 337 388 32,000 293 Climbing Chicago Center
Sat 01:40:23 PM 42.1728 -90.5631 276° West 373 429 32,000  Level Chicago Center
Sat 01:41:25 PM 42.1844 -90.7153 276° West 407 468 32,000 290 Level Chicago Center
Sat 01:42:27 PM 42.1964 -90.8761 276° West 429 494 32,600 581 Climbing Chicago Center
Sat 01:43:29 PM 42.2067 -91.0394 275° West 439 505 33,200 683 Climbing Chicago Center
Sat 01:44:30 PM 42.2222 -91.2347 276° West 439 505 34,000 732 Climbing Chicago Center
Sat 01:45:32 PM 42.2461 -91.3964 281° West 439 505 34,700 677 Climbing Chicago Center
Sat 01:46:34 PM 42.2692 -91.5578 281° West 440 506 35,400 629 Climbing Chicago Center
Sat 01:47:36 PM 42.2908 -91.7192 280° West 439 505 36,000 293 Climbing Chicago Center
Sat 01:48:37 PM 42.3139 -91.8831 281° West 443 510 36,000  Level Chicago Center
Sat 01:49:39 PM 42.3353 -92.0469 280° West 445 512 36,000  Level Chicago Center
Sat 01:50:41 PM 42.3572 -92.2122 280° West 448 516 36,000  Level Chicago Center
Sat 01:51:42 PM 42.3831 -92.4125 280° West 452 520 36,000  Level Chicago Center
Sat 01:52:44 PM 42.4042 -92.5781 280° West 452 520 36,000  Level Chicago Center
Sat 01:53:46 PM 42.4250 -92.7450 280° West 452 520 36,000  Level Chicago Center
Sat 01:54:48 PM 42.4467 -92.9114 280° West 452 520 36,000  Level Chicago Center
Sat 01:55:49 PM 42.4669 -93.0800 279° West 455 524 36,000  Level Chicago Center
Sat 01:56:51 PM 42.4892 -93.2458 280° West 452 520 36,000  Level Chicago Center
Sat 01:57:52 PM 42.5086 -93.4139 279° West 455 524 36,000  Level Chicago Center
Sat 01:59:06 PM 42.5369 -93.6461 279° West 449 517 36,000  Level Minneapolis Center
Sat 02:00:08 PM 42.5569 -93.8119 279° West 451 519 36,000  Level Minneapolis Center
Sat 02:01:10 PM 42.5761 -93.9764 279° West 447 514 36,000  Level Minneapolis Center
Sat 02:02:12 PM 42.5936 -94.1386 278° West 442 509 36,000  Level Minneapolis Center
Sat 02:03:14 PM 42.6153 -94.3017 280° West 443 510 36,000  Level Minneapolis Center
Sat 02:04:15 PM 42.6872 -94.4694 300° West 430 495 36,000  Level Minneapolis Center
Sat 02:05:41 PM 42.7519 -94.6211 300° West 425 489 36,000  Level Minneapolis Center
Sat 02:06:44 PM 42.8331 -94.8167 300° West 424 488 36,000  Level Minneapolis Center
Sat 02:07:46 PM 42.8633 -94.9767 285° West 436 502 36,000  Level Minneapolis Center
Sat 02:08:47 PM 42.8933 -95.1356 285° West 433 498 36,000  Level Minneapolis Center
Sat 02:09:49 PM 42.9214 -95.2939 284° West 429 494 36,000  Level Minneapolis Center
Sat 02:10:51 PM 42.9500 -95.4511 284° West 429 494 36,000  Level Minneapolis Center
Sat 02:11:53 PM 42.9783 -95.6100 284° West 430 495 36,000  Level Minneapolis Center
Sat 02:12:54 PM 43.0067 -95.7675 284° West 428 493 36,000  Level Minneapolis Center
Sat 02:13:56 PM 43.0406 -95.9592 284° West 430 495 36,000  Level Minneapolis Center
Sat 02:15:10 PM 43.0681 -96.1161 284° West 427 491 36,000  Level Minneapolis Center
Sat 02:16:12 PM 43.1003 -96.3047 283° West 425 489 36,000  Level Minneapolis Center
Sat 02:17:14 PM 43.1267 -96.4619 283° West 424 488 36,000  Level Minneapolis Center
Sat 02:18:16 PM 43.1539 -96.6183 283° West 423 487 36,000  Level Minneapolis Center
Sat 02:19:18 PM 43.1794 -96.7747 283° West 422 486 36,000  Level Minneapolis Center
Sat 02:20:20 PM 43.2056 -96.9289 283° West 418 481 36,000  Level Minneapolis Center
Sat 02:21:22 PM 43.2311 -97.0850 283° West 417 480 36,000  Level Minneapolis Center
Sat 02:22:23 PM 43.2619 -97.2708 283° West 417 480 36,000  Level Minneapolis Center
Sat 02:23:25 PM 43.2869 -97.4258 283° West 416 479 36,000  Level Minneapolis Center
Sat 02:24:27 PM 43.3117 -97.5806 282° West 416 479 36,000  Level Minneapolis Center
Sat 02:25:29 PM 43.3361 -97.7344 282° West 414 476 36,000  Level Minneapolis Center
Sat 02:26:31 PM 43.3608 -97.8883 283° West 414 476 36,000  Level Minneapolis Center
Sat 02:27:33 PM 43.3842 -98.0403 282° West 410 472 36,000  Level Minneapolis Center
Sat 02:28:47 PM 43.4117 -98.2239 282° West 409 471 36,000  Level Minneapolis Center
Sat 02:29:49 PM 43.4411 -98.4086 282° West 411 473 36,000  Level Minneapolis Center
Sat 02:30:51 PM 43.4628 -98.5592 281° West 405 466 36,000  Level Minneapolis Center
Sat 02:31:53 PM 43.4847 -98.7050 282° West 407 468 36,000  Level Minneapolis Center
Sat 02:32:55 PM 43.5075 -98.8569 282° West 405 466 36,000  Level Minneapolis Center
Sat 02:33:56 PM 43.5258 -98.9789 282° West 406 467 36,000  Level Minneapolis Center
Sat 02:34:59 PM 43.5567 -99.1931 281° West 407 468 36,000  Level Minneapolis Center
Sat 02:36:01 PM 43.5742 -99.3147 281° West 406 467 36,000  Level Minneapolis Center
Sat 02:37:03 PM 43.6003 -99.4967 281° West 403 464 36,000  Level Minneapolis Center
Sat 02:38:04 PM 43.6217 -99.6497 281° West 404 465 36,000  Level Minneapolis Center
Sat 02:39:06 PM 43.6433 -99.8017 281° West 403 464 36,000  Level Minneapolis Center
Sat 02:40:08 PM 43.6636 -99.9550 280° West 404 465 36,000  Level Minneapolis Center
Sat 02:41:10 PM 43.6844 -100.1058 281° West 402 463 36,000  Level Minneapolis Center
Sat 02:42:12 PM 43.7094 -100.2864 281° West 399 459 36,000  Level Minneapolis Center
Sat 02:43:14 PM 43.7289 -100.4375 280° West 398 458 36,000  Level Minneapolis Center
Sat 02:44:16 PM 43.7489 -100.5886 280° West 398 458 36,000  Level Minneapolis Center
Sat 02:45:17 PM 43.7686 -100.7392 280° West 397 457 36,000  Level Minneapolis Center
Sat 02:46:19 PM 43.7883 -100.8900 280° West 398 458 36,000  Level Minneapolis Center
Sat 02:47:33 PM 43.8075 -101.0408 280° West 398 458 36,000 -88 Level Minneapolis Center
Sat 02:48:35 PM 43.8303 -101.2192 280° West 394 453 35,800 -677 Descending Minneapolis Center
Sat 02:49:37 PM 43.8525 -101.4000 280° West 394 453 34,600 -1,377 Descending Minneapolis Center
Sat 02:50:37 PM 43.8700 -101.5533 279° West 402 463 33,000 -2,182 Descending Denver Center
Sat 02:51:38 PM 43.8908 -101.7108 280° West 412 474 30,200 -2,732 Descending Denver Center
Sat 02:52:40 PM 43.9078 -101.8639 279° West 405 466 27,400 -2,855 Descending Denver Center
Sat 02:53:42 PM 43.9242 -102.0225 278° West 410 472 24,300 -3,073 Descending Denver Center
Sat 02:54:43 PM 43.9444 -102.1839 280° West 418 481 21,100 -3,268 Descending Denver Center
Sat 02:55:45 PM 43.9658 -102.3356 281° West 409 471 17,600 -3,590 Descending Denver Center
Sat 02:56:45 PM 43.9828 -102.4817 279° West 370 426 13,800 -2,926 Descending Denver Center
Sat 02:57:46 PM 43.9978 -102.6219 279° West 353 406 11,700 -1,736 Descending Denver Center
Sat 02:58:46 PM 43.9989 -102.7278 271° West 290 334 10,300 -1,636 Descending Denver Center
Sat 02:59:47 PM 43.9850 -102.8350 260° West 272 313 8,400 -2,115 Descending Denver Center
Sat 03:00:48 PM 43.9783 -102.9192 264° West 210 242 6,000 -1,934 Descending Denver Center
Sat 03:01:48 PM 43.9897 -102.9808 284° West 178 205 4,500 -1,240 Descending Denver Center
Sat 03:02:49 PM 44.0147 -103.0356 302° West 159 183 3,500 -984 Descending Denver Center

Login

Don't have an account? Register now (free) for customized features, flight alerts, and more!